Crotona Park, New York
Current Conditions -  °F | °C
As of 7:51 AM on Tuesday 21 Oct 2014 (Local Time) from KLGA Reporting Station
Broken Clouds Broken Clouds  
Wind Chill: 56°   Ceiling: 25000
Heat Index: 56°   Visibility: 10mi
Dew Point: 47°   Wind: 7mph
Humidity: 72%   Direction: 90°E
Pressure: 29.9"   Gusts: NA
Location:  40.8446°N, 73.88°W
Report Text: KLGA 211151Z 09006KT 10SM FEW060 SCT110 SCT140 BKN250 13/08 A2990 RMK AO2 SLP123 T01330083 10144 20128 55001
Loading
Personal Weather Stations






























Interactive Weather Map
Tropical Storm Tracking
New forecast layout! Learn more

10-Day Weather Forecast

Advertisements
Track Severe Weather on mobile